sensor_id;sensor_type;location;lat;lon;timestamp;P1;durP1;ratioP1;P2;durP2;ratioP2
22382;SDS011;11359;45.802;13.530;2023-03-14T00:01:08;0.35;;;0.30;;
22382;SDS011;11359;45.802;13.530;2023-03-14T00:03:35;0.63;;;0.40;;
22382;SDS011;11359;45.802;13.530;2023-03-14T00:06:02;0.40;;;0.40;;
22382;SDS011;11359;45.802;13.530;2023-03-14T00:08:29;0.40;;;0.40;;
22382;SDS011;11359;45.802;13.530;2023-03-14T00:10:55;0.40;;;0.40;;
22382;SDS011;11359;45.802;13.530;2023-03-14T00:13:22;0.60;;;0.50;;
22382;SDS011;11359;45.802;13.530;2023-03-14T00:15:48;0.40;;;0.40;;
22382;SDS011;11359;45.802;13.530;2023-03-14T00:18:14;0.50;;;0.40;;
22382;SDS011;11359;45.802;13.530;2023-03-14T00:20:39;0.85;;;0.40;;
22382;SDS011;11359;45.802;13.530;2023-03-14T00:23:05;0.38;;;0.38;;
22382;SDS011;11359;45.802;13.530;2023-03-14T00:25:31;0.43;;;0.38;;
22382;SDS011;11359;45.802;13.530;2023-03-14T00:27:57;0.80;;;0.45;;
22382;SDS011;11359;45.802;13.530;2023-03-14T00:30:22;0.40;;;0.40;;
22382;SDS011;11359;45.802;13.530;2023-03-14T00:32:48;0.40;;;0.40;;
22382;SDS011;11359;45.802;13.530;2023-03-14T00:35:14;0.40;;;0.40;;
22382;SDS011;11359;45.802;13.530;2023-03-14T00:37:40;0.40;;;0.40;;
22382;SDS011;11359;45.802;13.530;2023-03-14T00:40:07;0.40;;;0.30;;
22382;SDS011;11359;45.802;13.530;2023-03-14T00:42:33;0.80;;;0.30;;
22382;SDS011;11359;45.802;13.530;2023-03-14T00:45:00;0.38;;;0.38;;
22382;SDS011;11359;45.802;13.530;2023-03-14T00:47:26;0.30;;;0.30;;
22382;SDS011;11359;45.802;13.530;2023-03-14T00:49:52;0.30;;;0.30;;
22382;SDS011;11359;45.802;13.530;2023-03-14T00:52:20;0.30;;;0.30;;
22382;SDS011;11359;45.802;13.530;2023-03-14T00:54:46;0.30;;;0.30;;
22382;SDS011;11359;45.802;13.530;2023-03-14T00:57:13;0.30;;;0.30;;
22382;SDS011;11359;45.802;13.530;2023-03-14T00:59:38;0.55;;;0.30;;
22382;SDS011;11359;45.802;13.530;2023-03-14T01:02:04;0.52;;;0.30;;
22382;SDS011;11359;45.802;13.530;2023-03-14T01:04:30;0.30;;;0.30;;
22382;SDS011;11359;45.802;13.530;2023-03-14T01:06:56;0.30;;;0.30;;
22382;SDS011;11359;45.802;13.530;2023-03-14T01:09:22;0.43;;;0.40;;
22382;SDS011;11359;45.802;13.530;2023-03-14T01:11:48;0.32;;;0.32;;
22382;SDS011;11359;45.802;13.530;2023-03-14T01:14:14;0.30;;;0.30;;
22382;SDS011;11359;45.802;13.530;2023-03-14T01:16:40;0.30;;;0.30;;
22382;SDS011;11359;45.802;13.530;2023-03-14T01:19:06;0.45;;;0.30;;
22382;SDS011;11359;45.802;13.530;2023-03-14T01:21:32;0.60;;;0.40;;
22382;SDS011;11359;45.802;13.530;2023-03-14T01:24:00;0.40;;;0.40;;
22382;SDS011;11359;45.802;13.530;2023-03-14T01:26:29;0.30;;;0.30;;
22382;SDS011;11359;45.802;13.530;2023-03-14T01:28:55;0.35;;;0.35;;
22382;SDS011;11359;45.802;13.530;2023-03-14T01:31:22;0.65;;;0.30;;
22382;SDS011;11359;45.802;13.530;2023-03-14T01:33:49;0.70;;;0.35;;
22382;SDS011;11359;45.802;13.530;2023-03-14T01:36:15;0.45;;;0.40;;
22382;SDS011;11359;45.802;13.530;2023-03-14T01:38:40;0.32;;;0.32;;
22382;SDS011;11359;45.802;13.530;2023-03-14T01:41:07;0.57;;;0.40;;
22382;SDS011;11359;45.802;13.530;2023-03-14T01:43:34;0.35;;;0.35;;
22382;SDS011;11359;45.802;13.530;2023-03-14T01:48:31;0.40;;;0.40;;
22382;SDS011;11359;45.802;13.530;2023-03-14T01:51:08;0.40;;;0.40;;
22382;SDS011;11359;45.802;13.530;2023-03-14T01:53:38;0.30;;;0.30;;
22382;SDS011;11359;45.802;13.530;2023-03-14T01:56:06;0.30;;;0.30;;
22382;SDS011;11359;45.802;13.530;2023-03-14T01:58:34;0.30;;;0.30;;
22382;SDS011;11359;45.802;13.530;2023-03-14T02:01:04;0.30;;;0.30;;
22382;SDS011;11359;45.802;13.530;2023-03-14T02:03:33;0.30;;;0.30;;
22382;SDS011;11359;45.802;13.530;2023-03-14T02:06:07;0.28;;;0.28;;
22382;SDS011;11359;45.802;13.530;2023-03-14T02:08:33;0.30;;;0.30;;
22382;SDS011;11359;45.802;13.530;2023-03-14T02:11:02;0.30;;;0.30;;
22382;SDS011;11359;45.802;13.530;2023-03-14T02:13:29;0.30;;;0.30;;
22382;SDS011;11359;45.802;13.530;2023-03-14T02:15:55;0.30;;;0.30;;
22382;SDS011;11359;45.802;13.530;2023-03-14T02:18:22;0.30;;;0.30;;
22382;SDS011;11359;45.802;13.530;2023-03-14T02:26:38;0.38;;;0.30;;
22382;SDS011;11359;45.802;13.530;2023-03-14T02:29:24;0.20;;;0.20;;
22382;SDS011;11359;45.802;13.530;2023-03-14T02:31:50;0.25;;;0.25;;
22382;SDS011;11359;45.802;13.530;2023-03-14T02:34:17;0.40;;;0.30;;
22382;SDS011;11359;45.802;13.530;2023-03-14T02:36:43;0.30;;;0.30;;
22382;SDS011;11359;45.802;13.530;2023-03-14T02:39:14;0.30;;;0.30;;
22382;SDS011;11359;45.802;13.530;2023-03-14T02:41:45;0.95;;;0.20;;
22382;SDS011;11359;45.802;13.530;2023-03-14T02:44:14;0.25;;;0.25;;
22382;SDS011;11359;45.802;13.530;2023-03-14T02:46:39;0.60;;;0.30;;
22382;SDS011;11359;45.802;13.530;2023-03-14T02:49:09;0.47;;;0.30;;
22382;SDS011;11359;45.802;13.530;2023-03-14T02:51:37;0.30;;;0.30;;
22382;SDS011;11359;45.802;13.530;2023-03-14T02:54:04;0.30;;;0.30;;
22382;SDS011;11359;45.802;13.530;2023-03-14T02:56:30;0.28;;;0.28;;
22382;SDS011;11359;45.802;13.530;2023-03-14T02:58:56;0.30;;;0.30;;
22382;SDS011;11359;45.802;13.530;2023-03-14T03:01:22;0.40;;;0.40;;
22382;SDS011;11359;45.802;13.530;2023-03-14T03:03:49;0.30;;;0.30;;
22382;SDS011;11359;45.802;13.530;2023-03-14T03:06:15;0.20;;;0.20;;
22382;SDS011;11359;45.802;13.530;2023-03-14T03:08:41;0.30;;;0.30;;
22382;SDS011;11359;45.802;13.530;2023-03-14T03:11:07;0.30;;;0.30;;
22382;SDS011;11359;45.802;13.530;2023-03-14T03:13:33;0.20;;;0.20;;
22382;SDS011;11359;45.802;13.530;2023-03-14T03:15:59;0.30;;;0.30;;
22382;SDS011;11359;45.802;13.530;2023-03-14T03:18:25;0.30;;;0.30;;
22382;SDS011;11359;45.802;13.530;2023-03-14T03:20:51;0.30;;;0.30;;
22382;SDS011;11359;45.802;13.530;2023-03-14T03:23:16;0.20;;;0.20;;
22382;SDS011;11359;45.802;13.530;2023-03-14T03:25:42;0.22;;;0.22;;
22382;SDS011;11359;45.802;13.530;2023-03-14T03:30:42;0.30;;;0.30;;
22382;SDS011;11359;45.802;13.530;2023-03-14T03:33:09;0.30;;;0.30;;
22382;SDS011;11359;45.802;13.530;2023-03-14T03:35:41;0.50;;;0.40;;
22382;SDS011;11359;45.802;13.530;2023-03-14T03:38:11;0.30;;;0.30;;
22382;SDS011;11359;45.802;13.530;2023-03-14T03:40:37;0.30;;;0.30;;
22382;SDS011;11359;45.802;13.530;2023-03-14T03:43:02;0.40;;;0.40;;
22382;SDS011;11359;45.802;13.530;2023-03-14T03:45:29;0.45;;;0.40;;
22382;SDS011;11359;45.802;13.530;2023-03-14T03:47:55;0.30;;;0.30;;
22382;SDS011;11359;45.802;13.530;2023-03-14T03:50:21;0.40;;;0.40;;
22382;SDS011;11359;45.802;13.530;2023-03-14T03:52:47;0.30;;;0.30;;
22382;SDS011;11359;45.802;13.530;2023-03-14T03:55:12;0.30;;;0.30;;
22382;SDS011;11359;45.802;13.530;2023-03-14T03:57:38;0.30;;;0.30;;
22382;SDS011;11359;45.802;13.530;2023-03-14T04:00:04;0.30;;;0.30;;
22382;SDS011;11359;45.802;13.530;2023-03-14T04:02:31;0.43;;;0.30;;
22382;SDS011;11359;45.802;13.530;2023-03-14T04:04:56;0.20;;;0.20;;
22382;SDS011;11359;45.802;13.530;2023-03-14T04:07:22;0.30;;;0.30;;
22382;SDS011;11359;45.802;13.530;2023-03-14T04:09:48;0.50;;;0.40;;
22382;SDS011;11359;45.802;13.530;2023-03-14T04:12:14;0.73;;;0.40;;
22382;SDS011;11359;45.802;13.530;2023-03-14T04:14:39;1.30;;;0.47;;
22382;SDS011;11359;45.802;13.530;2023-03-14T04:17:06;0.45;;;0.45;;
22382;SDS011;11359;45.802;13.530;2023-03-14T04:19:32;0.50;;;0.40;;
22382;SDS011;11359;45.802;13.530;2023-03-14T04:22:01;0.38;;;0.38;;
22382;SDS011;11359;45.802;13.530;2023-03-14T04:24:26;0.40;;;0.40;;
22382;SDS011;11359;45.802;13.530;2023-03-14T04:26:52;0.50;;;0.45;;
22382;SDS011;11359;45.802;13.530;2023-03-14T04:29:18;0.40;;;0.40;;
22382;SDS011;11359;45.802;13.530;2023-03-14T04:31:44;0.40;;;0.40;;
22382;SDS011;11359;45.802;13.530;2023-03-14T04:34:10;0.40;;;0.40;;
22382;SDS011;11359;45.802;13.530;2023-03-14T04:36:36;0.38;;;0.38;;
22382;SDS011;11359;45.802;13.530;2023-03-14T04:39:02;0.40;;;0.40;;
22382;SDS011;11359;45.802;13.530;2023-03-14T04:41:29;0.40;;;0.40;;
22382;SDS011;11359;45.802;13.530;2023-03-14T04:43:54;0.45;;;0.40;;
22382;SDS011;11359;45.802;13.530;2023-03-14T04:46:20;1.33;;;0.45;;
22382;SDS011;11359;45.802;13.530;2023-03-14T04:48:49;0.70;;;0.47;;
22382;SDS011;11359;45.802;13.530;2023-03-14T04:51:14;0.82;;;0.40;;
22382;SDS011;11359;45.802;13.530;2023-03-14T04:53:40;0.60;;;0.40;;
22382;SDS011;11359;45.802;13.530;2023-03-14T04:56:06;0.77;;;0.43;;
22382;SDS011;11359;45.802;13.530;2023-03-14T04:58:32;0.60;;;0.50;;
22382;SDS011;11359;45.802;13.530;2023-03-14T05:01:04;0.47;;;0.40;;
22382;SDS011;11359;45.802;13.530;2023-03-14T05:03:31;0.73;;;0.40;;
22382;SDS011;11359;45.802;13.530;2023-03-14T05:05:57;0.43;;;0.43;;
22382;SDS011;11359;45.802;13.530;2023-03-14T05:08:24;0.45;;;0.40;;
22382;SDS011;11359;45.802;13.530;2023-03-14T05:10:56;0.70;;;0.50;;
22382;SDS011;11359;45.802;13.530;2023-03-14T05:13:23;0.32;;;0.30;;
22382;SDS011;11359;45.802;13.530;2023-03-14T05:15:48;0.30;;;0.30;;
22382;SDS011;11359;45.802;13.530;2023-03-14T05:18:20;1.10;;;0.95;;
22382;SDS011;11359;45.802;13.530;2023-03-14T05:20:45;0.35;;;0.35;;
22382;SDS011;11359;45.802;13.530;2023-03-14T05:23:11;0.50;;;0.40;;
22382;SDS011;11359;45.802;13.530;2023-03-14T05:25:37;0.40;;;0.40;;
22382;SDS011;11359;45.802;13.530;2023-03-14T05:28:02;0.60;;;0.40;;
22382;SDS011;11359;45.802;13.530;2023-03-14T05:30:28;0.40;;;0.30;;
22382;SDS011;11359;45.802;13.530;2023-03-14T05:32:55;0.88;;;0.50;;
22382;SDS011;11359;45.802;13.530;2023-03-14T05:35:21;1.17;;;0.40;;
22382;SDS011;11359;45.802;13.530;2023-03-14T05:37:47;1.20;;;0.60;;
22382;SDS011;11359;45.802;13.530;2023-03-14T05:40:13;0.50;;;0.40;;
22382;SDS011;11359;45.802;13.530;2023-03-14T05:42:38;0.50;;;0.50;;
22382;SDS011;11359;45.802;13.530;2023-03-14T05:45:04;0.50;;;0.40;;
22382;SDS011;11359;45.802;13.530;2023-03-14T05:47:30;0.80;;;0.60;;
22382;SDS011;11359;45.802;13.530;2023-03-14T05:49:56;1.38;;;0.50;;
22382;SDS011;11359;45.802;13.530;2023-03-14T05:52:21;0.73;;;0.50;;
22382;SDS011;11359;45.802;13.530;2023-03-14T05:54:47;0.77;;;0.43;;
22382;SDS011;11359;45.802;13.530;2023-03-14T05:57:13;0.73;;;0.50;;
22382;SDS011;11359;45.802;13.530;2023-03-14T05:59:38;0.40;;;0.40;;
22382;SDS011;11359;45.802;13.530;2023-03-14T06:02:04;0.50;;;0.40;;
22382;SDS011;11359;45.802;13.530;2023-03-14T06:04:30;1.55;;;0.40;;
22382;SDS011;11359;45.802;13.530;2023-03-14T06:06:55;0.57;;;0.40;;
22382;SDS011;11359;45.802;13.530;2023-03-14T06:09:21;0.40;;;0.40;;
22382;SDS011;11359;45.802;13.530;2023-03-14T06:11:48;0.30;;;0.30;;
22382;SDS011;11359;45.802;13.530;2023-03-14T06:14:14;0.43;;;0.40;;
22382;SDS011;11359;45.802;13.530;2023-03-14T06:16:40;0.55;;;0.40;;
22382;SDS011;11359;45.802;13.530;2023-03-14T06:19:05;0.60;;;0.40;;
22382;SDS011;11359;45.802;13.530;2023-03-14T06:21:31;0.75;;;0.50;;
22382;SDS011;11359;45.802;13.530;2023-03-14T06:23:56;0.45;;;0.40;;
22382;SDS011;11359;45.802;13.530;2023-03-14T06:26:22;0.77;;;0.47;;
22382;SDS011;11359;45.802;13.530;2023-03-14T06:28:48;0.45;;;0.40;;
22382;SDS011;11359;45.802;13.530;2023-03-14T06:31:15;0.30;;;0.30;;
22382;SDS011;11359;45.802;13.530;2023-03-14T06:33:41;0.40;;;0.40;;
22382;SDS011;11359;45.802;13.530;2023-03-14T06:36:07;0.40;;;0.40;;
22382;SDS011;11359;45.802;13.530;2023-03-14T06:38:33;0.40;;;0.40;;
22382;SDS011;11359;45.802;13.530;2023-03-14T06:41:05;0.40;;;0.40;;
22382;SDS011;11359;45.802;13.530;2023-03-14T06:43:32;0.50;;;0.40;;
22382;SDS011;11359;45.802;13.530;2023-03-14T06:45:58;0.90;;;0.40;;
22382;SDS011;11359;45.802;13.530;2023-03-14T06:48:25;0.40;;;0.40;;
22382;SDS011;11359;45.802;13.530;2023-03-14T06:50:51;0.40;;;0.40;;
22382;SDS011;11359;45.802;13.530;2023-03-14T06:53:21;1.30;;;0.50;;
22382;SDS011;11359;45.802;13.530;2023-03-14T06:55:47;0.50;;;0.50;;
22382;SDS011;11359;45.802;13.530;2023-03-14T06:58:13;0.55;;;0.40;;
22382;SDS011;11359;45.802;13.530;2023-03-14T07:00:39;0.95;;;0.45;;
22382;SDS011;11359;45.802;13.530;2023-03-14T07:03:05;0.90;;;0.50;;
22382;SDS011;11359;45.802;13.530;2023-03-14T07:05:31;0.60;;;0.40;;
22382;SDS011;11359;45.802;13.530;2023-03-14T07:07:56;0.43;;;0.40;;
22382;SDS011;11359;45.802;13.530;2023-03-14T07:10:23;0.47;;;0.40;;
22382;SDS011;11359;45.802;13.530;2023-03-14T07:12:49;1.27;;;0.40;;
22382;SDS011;11359;45.802;13.530;2023-03-14T07:15:16;0.30;;;0.30;;
22382;SDS011;11359;45.802;13.530;2023-03-14T07:17:42;0.40;;;0.40;;
22382;SDS011;11359;45.802;13.530;2023-03-14T07:20:08;0.40;;;0.40;;
22382;SDS011;11359;45.802;13.530;2023-03-14T07:22:34;0.40;;;0.40;;
22382;SDS011;11359;45.802;13.530;2023-03-14T07:25:00;0.50;;;0.40;;
22382;SDS011;11359;45.802;13.530;2023-03-14T07:27:25;0.55;;;0.50;;
22382;SDS011;11359;45.802;13.530;2023-03-14T07:29:51;0.85;;;0.60;;
22382;SDS011;11359;45.802;13.530;2023-03-14T07:32:17;1.23;;;0.60;;
22382;SDS011;11359;45.802;13.530;2023-03-14T07:34:42;0.77;;;0.60;;
22382;SDS011;11359;45.802;13.530;2023-03-14T07:37:08;0.80;;;0.70;;
22382;SDS011;11359;45.802;13.530;2023-03-14T07:39:35;0.90;;;0.70;;
22382;SDS011;11359;45.802;13.530;2023-03-14T07:42:01;0.90;;;0.60;;
22382;SDS011;11359;45.802;13.530;2023-03-14T07:44:27;2.35;;;0.80;;
22382;SDS011;11359;45.802;13.530;2023-03-14T07:46:53;1.70;;;0.70;;
22382;SDS011;11359;45.802;13.530;2023-03-14T07:49:19;0.70;;;0.60;;
22382;SDS011;11359;45.802;13.530;2023-03-14T07:51:48;0.77;;;0.65;;
22382;SDS011;11359;45.802;13.530;2023-03-14T07:54:15;0.85;;;0.60;;
22382;SDS011;11359;45.802;13.530;2023-03-14T07:56:41;1.35;;;0.70;;
22382;SDS011;11359;45.802;13.530;2023-03-14T07:59:10;0.65;;;0.60;;
22382;SDS011;11359;45.802;13.530;2023-03-14T08:01:37;0.60;;;0.50;;
22382;SDS011;11359;45.802;13.530;2023-03-14T08:04:02;0.88;;;0.60;;
22382;SDS011;11359;45.802;13.530;2023-03-14T08:06:29;0.85;;;0.70;;
22382;SDS011;11359;45.802;13.530;2023-03-14T08:08:56;0.85;;;0.60;;
22382;SDS011;11359;45.802;13.530;2023-03-14T08:11:21;0.60;;;0.50;;
22382;SDS011;11359;45.802;13.530;2023-03-14T08:13:47;0.70;;;0.50;;
22382;SDS011;11359;45.802;13.530;2023-03-14T08:16:18;0.77;;;0.40;;
22382;SDS011;11359;45.802;13.530;2023-03-14T08:18:44;1.08;;;0.50;;
22382;SDS011;11359;45.802;13.530;2023-03-14T08:21:11;1.02;;;0.40;;
22382;SDS011;11359;45.802;13.530;2023-03-14T08:23:37;0.55;;;0.50;;
22382;SDS011;11359;45.802;13.530;2023-03-14T08:26:02;0.40;;;0.32;;
22382;SDS011;11359;45.802;13.530;2023-03-14T08:28:28;0.40;;;0.40;;
22382;SDS011;11359;45.802;13.530;2023-03-14T08:30:56;0.50;;;0.40;;
22382;SDS011;11359;45.802;13.530;2023-03-14T08:33:22;0.70;;;0.50;;
22382;SDS011;11359;45.802;13.530;2023-03-14T08:35:51;1.23;;;0.65;;
22382;SDS011;11359;45.802;13.530;2023-03-14T08:38:17;0.60;;;0.50;;
22382;SDS011;11359;45.802;13.530;2023-03-14T08:40:43;0.40;;;0.40;;
22382;SDS011;11359;45.802;13.530;2023-03-14T08:43:08;0.60;;;0.43;;
22382;SDS011;11359;45.802;13.530;2023-03-14T08:45:34;0.57;;;0.50;;
22382;SDS011;11359;45.802;13.530;2023-03-14T08:48:00;0.50;;;0.40;;
22382;SDS011;11359;45.802;13.530;2023-03-14T08:50:25;0.45;;;0.45;;
22382;SDS011;11359;45.802;13.530;2023-03-14T08:52:51;0.88;;;0.40;;
22382;SDS011;11359;45.802;13.530;2023-03-14T08:55:17;0.55;;;0.35;;
22382;SDS011;11359;45.802;13.530;2023-03-14T08:57:42;0.63;;;0.30;;
22382;SDS011;11359;45.802;13.530;2023-03-14T09:00:08;1.25;;;0.43;;
22382;SDS011;11359;45.802;13.530;2023-03-14T09:02:37;0.30;;;0.30;;
22382;SDS011;11359;45.802;13.530;2023-03-14T09:05:03;0.30;;;0.30;;
22382;SDS011;11359;45.802;13.530;2023-03-14T09:07:29;0.30;;;0.30;;
22382;SDS011;11359;45.802;13.530;2023-03-14T09:09:55;0.30;;;0.30;;
22382;SDS011;11359;45.802;13.530;2023-03-14T09:12:20;0.43;;;0.40;;
22382;SDS011;11359;45.802;13.530;2023-03-14T09:14:49;0.30;;;0.30;;
22382;SDS011;11359;45.802;13.530;2023-03-14T09:17:15;0.82;;;0.50;;
22382;SDS011;11359;45.802;13.530;2023-03-14T09:19:41;0.60;;;0.50;;
22382;SDS011;11359;45.802;13.530;2023-03-14T09:22:07;1.02;;;0.55;;
22382;SDS011;11359;45.802;13.530;2023-03-14T09:24:34;0.55;;;0.50;;
22382;SDS011;11359;45.802;13.530;2023-03-14T09:27:00;0.52;;;0.40;;
22382;SDS011;11359;45.802;13.530;2023-03-14T09:29:26;0.40;;;0.40;;
22382;SDS011;11359;45.802;13.530;2023-03-14T09:31:51;0.43;;;0.30;;
22382;SDS011;11359;45.802;13.530;2023-03-14T09:34:17;0.40;;;0.40;;
22382;SDS011;11359;45.802;13.530;2023-03-14T09:36:43;0.47;;;0.40;;
22382;SDS011;11359;45.802;13.530;2023-03-14T09:39:10;0.30;;;0.30;;
22382;SDS011;11359;45.802;13.530;2023-03-14T09:41:37;0.73;;;0.30;;
22382;SDS011;11359;45.802;13.530;2023-03-14T09:44:10;0.40;;;0.40;;
22382;SDS011;11359;45.802;13.530;2023-03-14T09:46:46;0.40;;;0.40;;
22382;SDS011;11359;45.802;13.530;2023-03-14T09:49:21;0.30;;;0.30;;
22382;SDS011;11359;45.802;13.530;2023-03-14T09:51:56;0.52;;;0.35;;
22382;SDS011;11359;45.802;13.530;2023-03-14T09:56:56;0.50;;;0.50;;
22382;SDS011;11359;45.802;13.530;2023-03-14T09:59:22;0.65;;;0.40;;
22382;SDS011;11359;45.802;13.530;2023-03-14T10:01:47;0.47;;;0.40;;
22382;SDS011;11359;45.802;13.530;2023-03-14T10:04:15;0.40;;;0.40;;
22382;SDS011;11359;45.802;13.530;2023-03-14T10:06:44;0.40;;;0.40;;
22382;SDS011;11359;45.802;13.530;2023-03-14T10:09:19;0.55;;;0.55;;
22382;SDS011;11359;45.802;13.530;2023-03-14T10:11:51;0.75;;;0.40;;
22382;SDS011;11359;45.802;13.530;2023-03-14T10:14:28;0.40;;;0.40;;
22382;SDS011;11359;45.802;13.530;2023-03-14T10:17:09;0.68;;;0.50;;
22382;SDS011;11359;45.802;13.530;2023-03-14T10:19:37;0.68;;;0.50;;
22382;SDS011;11359;45.802;13.530;2023-03-14T10:22:16;0.60;;;0.60;;
22382;SDS011;11359;45.802;13.530;2023-03-14T10:24:45;0.73;;;0.45;;
22382;SDS011;11359;45.802;13.530;2023-03-14T10:27:18;0.43;;;0.40;;
22382;SDS011;11359;45.802;13.530;2023-03-14T10:29:52;0.57;;;0.50;;
22382;SDS011;11359;45.802;13.530;2023-03-14T10:32:28;0.60;;;0.50;;
22382;SDS011;11359;45.802;13.530;2023-03-14T10:37:56;0.70;;;0.50;;
22382;SDS011;11359;45.802;13.530;2023-03-14T10:40:33;0.55;;;0.55;;
22382;SDS011;11359;45.802;13.530;2023-03-14T10:43:04;0.60;;;0.47;;
22382;SDS011;11359;45.802;13.530;2023-03-14T10:51:26;0.40;;;0.40;;
22382;SDS011;11359;45.802;13.530;2023-03-14T10:53:50;0.85;;;0.40;;
22382;SDS011;11359;45.802;13.530;2023-03-14T10:56:36;0.77;;;0.40;;
22382;SDS011;11359;45.802;13.530;2023-03-14T10:59:11;0.57;;;0.40;;
22382;SDS011;11359;45.802;13.530;2023-03-14T11:04:14;0.30;;;0.30;;
22382;SDS011;11359;45.802;13.530;2023-03-14T11:06:56;0.40;;;0.40;;
22382;SDS011;11359;45.802;13.530;2023-03-14T11:09:42;0.30;;;0.30;;
22382;SDS011;11359;45.802;13.530;2023-03-14T11:12:38;0.40;;;0.40;;
22382;SDS011;11359;45.802;13.530;2023-03-14T11:15:36;0.30;;;0.30;;
22382;SDS011;11359;45.802;13.530;2023-03-14T11:21:12;0.30;;;0.30;;
22382;SDS011;11359;45.802;13.530;2023-03-14T11:23:54;0.30;;;0.30;;
22382;SDS011;11359;45.802;13.530;2023-03-14T11:26:57;0.30;;;0.30;;
22382;SDS011;11359;45.802;13.530;2023-03-14T11:29:41;0.32;;;0.30;;
22382;SDS011;11359;45.802;13.530;2023-03-14T11:32:55;0.30;;;0.30;;
22382;SDS011;11359;45.802;13.530;2023-03-14T11:35:03;0.40;;;0.30;;
22382;SDS011;11359;45.802;13.530;2023-03-14T11:37:39;0.40;;;0.40;;
22382;SDS011;11359;45.802;13.530;2023-03-14T11:40:25;0.30;;;0.30;;
22382;SDS011;11359;45.802;13.530;2023-03-14T11:42:59;0.40;;;0.40;;
22382;SDS011;11359;45.802;13.530;2023-03-14T11:45:27;0.32;;;0.30;;
22382;SDS011;11359;45.802;13.530;2023-03-14T11:48:07;0.43;;;0.40;;
22382;SDS011;11359;45.802;13.530;2023-03-14T11:50:36;0.40;;;0.40;;
22382;SDS011;11359;45.802;13.530;2023-03-14T11:53:04;0.55;;;0.55;;
22382;SDS011;11359;45.802;13.530;2023-03-14T11:55:39;0.40;;;0.40;;
22382;SDS011;11359;45.802;13.530;2023-03-14T12:00:53;0.60;;;0.45;;
22382;SDS011;11359;45.802;13.530;2023-03-14T12:11:13;1.05;;;0.50;;
22382;SDS011;11359;45.802;13.530;2023-03-14T12:13:49;0.43;;;0.40;;
22382;SDS011;11359;45.802;13.530;2023-03-14T12:18:48;1.15;;;0.50;;
22382;SDS011;11359;45.802;13.530;2023-03-14T12:21:15;0.60;;;0.60;;
22382;SDS011;11359;45.802;13.530;2023-03-14T12:26:19;0.80;;;0.70;;
22382;SDS011;11359;45.802;13.530;2023-03-14T12:29:20;0.73;;;0.50;;
22382;SDS011;11359;45.802;13.530;2023-03-14T12:39:19;1.05;;;0.50;;
22382;SDS011;11359;45.802;13.530;2023-03-14T12:42:04;0.60;;;0.50;;
22382;SDS011;11359;45.802;13.530;2023-03-14T12:44:39;0.50;;;0.50;;
22382;SDS011;11359;45.802;13.530;2023-03-14T12:49:43;0.73;;;0.60;;
22382;SDS011;11359;45.802;13.530;2023-03-14T12:52:57;1.30;;;0.60;;
22382;SDS011;11359;45.802;13.530;2023-03-14T12:55:15;1.27;;;0.70;;
22382;SDS011;11359;45.802;13.530;2023-03-14T13:00:51;0.90;;;0.70;;
22382;SDS011;11359;45.802;13.530;2023-03-14T13:03:22;0.45;;;0.43;;
22382;SDS011;11359;45.802;13.530;2023-03-14T13:05:53;0.93;;;0.60;;
22382;SDS011;11359;45.802;13.530;2023-03-14T13:08:33;0.52;;;0.40;;
22382;SDS011;11359;45.802;13.530;2023-03-14T13:11:03;0.75;;;0.60;;
22382;SDS011;11359;45.802;13.530;2023-03-14T13:13:52;1.17;;;0.60;;
22382;SDS011;11359;45.802;13.530;2023-03-14T13:16:22;1.33;;;0.60;;
22382;SDS011;11359;45.802;13.530;2023-03-14T13:18:49;1.95;;;0.73;;
22382;SDS011;11359;45.802;13.530;2023-03-14T13:21:44;1.58;;;0.70;;
22382;SDS011;11359;45.802;13.530;2023-03-14T13:24:26;2.45;;;0.70;;
22382;SDS011;11359;45.802;13.530;2023-03-14T13:26:56;0.60;;;0.50;;
22382;SDS011;11359;45.802;13.530;2023-03-14T13:29:24;1.00;;;0.60;;
22382;SDS011;11359;45.802;13.530;2023-03-14T13:31:55;0.60;;;0.50;;
22382;SDS011;11359;45.802;13.530;2023-03-14T13:34:26;0.50;;;0.50;;
22382;SDS011;11359;45.802;13.530;2023-03-14T13:36:54;0.57;;;0.40;;
22382;SDS011;11359;45.802;13.530;2023-03-14T13:39:21;0.70;;;0.50;;
22382;SDS011;11359;45.802;13.530;2023-03-14T13:41:51;1.10;;;0.50;;
22382;SDS011;11359;45.802;13.530;2023-03-14T13:44:29;0.80;;;0.52;;
22382;SDS011;11359;45.802;13.530;2023-03-14T13:47:01;0.80;;;0.60;;
22382;SDS011;11359;45.802;13.530;2023-03-14T13:49:28;0.68;;;0.50;;
22382;SDS011;11359;45.802;13.530;2023-03-14T13:51:57;0.80;;;0.60;;
22382;SDS011;11359;45.802;13.530;2023-03-14T13:54:25;0.80;;;0.70;;
22382;SDS011;11359;45.802;13.530;2023-03-14T13:56:59;0.70;;;0.50;;
22382;SDS011;11359;45.802;13.530;2023-03-14T13:59:27;0.60;;;0.50;;
22382;SDS011;11359;45.802;13.530;2023-03-14T14:01:54;0.40;;;0.40;;
22382;SDS011;11359;45.802;13.530;2023-03-14T14:04:23;0.50;;;0.50;;
22382;SDS011;11359;45.802;13.530;2023-03-14T14:06:52;0.60;;;0.40;;
22382;SDS011;11359;45.802;13.530;2023-03-14T14:09:25;1.45;;;0.50;;
22382;SDS011;11359;45.802;13.530;2023-03-14T14:14:32;0.57;;;0.43;;
22382;SDS011;11359;45.802;13.530;2023-03-14T14:17:10;0.40;;;0.40;;
22382;SDS011;11359;45.802;13.530;2023-03-14T14:19:38;0.50;;;0.50;;
22382;SDS011;11359;45.802;13.530;2023-03-14T14:22:05;0.45;;;0.40;;
22382;SDS011;11359;45.802;13.530;2023-03-14T14:24:34;0.47;;;0.40;;
22382;SDS011;11359;45.802;13.530;2023-03-14T14:27:24;0.40;;;0.40;;
22382;SDS011;11359;45.802;13.530;2023-03-14T14:30:02;0.40;;;0.40;;
22382;SDS011;11359;45.802;13.530;2023-03-14T14:32:39;0.90;;;0.40;;
22382;SDS011;11359;45.802;13.530;2023-03-14T14:35:06;0.60;;;0.40;;
22382;SDS011;11359;45.802;13.530;2023-03-14T14:37:35;0.82;;;0.40;;
22382;SDS011;11359;45.802;13.530;2023-03-14T14:40:17;0.50;;;0.40;;
22382;SDS011;11359;45.802;13.530;2023-03-14T14:42:45;0.85;;;0.60;;
22382;SDS011;11359;45.802;13.530;2023-03-14T14:45:22;0.40;;;0.40;;
22382;SDS011;11359;45.802;13.530;2023-03-14T14:47:57;0.63;;;0.40;;
22382;SDS011;11359;45.802;13.530;2023-03-14T14:50:30;0.80;;;0.50;;
22382;SDS011;11359;45.802;13.530;2023-03-14T14:52:59;0.40;;;0.40;;
22382;SDS011;11359;45.802;13.530;2023-03-14T14:56:04;0.40;;;0.40;;
22382;SDS011;11359;45.802;13.530;2023-03-14T14:58:25;0.70;;;0.40;;
22382;SDS011;11359;45.802;13.530;2023-03-14T15:00:58;0.52;;;0.40;;
22382;SDS011;11359;45.802;13.530;2023-03-14T15:03:31;0.77;;;0.47;;
22382;SDS011;11359;45.802;13.530;2023-03-14T15:05:57;0.95;;;0.52;;
22382;SDS011;11359;45.802;13.530;2023-03-14T15:08:24;0.95;;;0.63;;
22382;SDS011;11359;45.802;13.530;2023-03-14T15:10:51;0.55;;;0.50;;
22382;SDS011;11359;45.802;13.530;2023-03-14T15:13:16;0.50;;;0.50;;
22382;SDS011;11359;45.802;13.530;2023-03-14T15:15:45;2.00;;;0.77;;
22382;SDS011;11359;45.802;13.530;2023-03-14T15:18:15;3.35;;;1.33;;
22382;SDS011;11359;45.802;13.530;2023-03-14T15:20:43;3.00;;;1.65;;
22382;SDS011;11359;45.802;13.530;2023-03-14T15:23:13;2.38;;;1.45;;
22382;SDS011;11359;45.802;13.530;2023-03-14T15:25:41;2.35;;;1.50;;
22382;SDS011;11359;45.802;13.530;2023-03-14T15:28:16;2.65;;;1.50;;
22382;SDS011;11359;45.802;13.530;2023-03-14T15:30:48;2.22;;;1.02;;
22382;SDS011;11359;45.802;13.530;2023-03-14T15:33:15;1.50;;;1.10;;
22382;SDS011;11359;45.802;13.530;2023-03-14T15:35:41;1.10;;;0.98;;
22382;SDS011;11359;45.802;13.530;2023-03-14T15:38:09;1.65;;;1.00;;
22382;SDS011;11359;45.802;13.530;2023-03-14T15:40:39;0.90;;;0.70;;
22382;SDS011;11359;45.802;13.530;2023-03-14T15:43:05;1.13;;;0.80;;